sensor_id;sensor_type;location;lat;lon;timestamp;temperature;humidity
63960;DHT22;50136;51.374;0.096;2023-02-24T00:07:25;1.70;99.90
63960;DHT22;50136;51.374;0.096;2023-02-24T00:17:28;1.70;99.90
63960;DHT22;50136;51.374;0.096;2023-02-24T00:27:30;1.40;99.90
63960;DHT22;50136;51.374;0.096;2023-02-24T00:37:34;1.30;99.90
63960;DHT22;50136;51.374;0.096;2023-02-24T00:47:37;1.10;99.90
63960;DHT22;50136;51.374;0.096;2023-02-24T00:57:41;1.10;99.90
63960;DHT22;50136;51.374;0.096;2023-02-24T01:07:43;1.00;99.90
63960;DHT22;50136;51.374;0.096;2023-02-24T01:17:46;0.90;99.90
63960;DHT22;50136;51.374;0.096;2023-02-24T01:27:48;0.80;99.90
63960;DHT22;50136;51.374;0.096;2023-02-24T01:37:51;0.90;99.90
63960;DHT22;50136;51.374;0.096;2023-02-24T01:47:57;0.90;99.90
63960;DHT22;50136;51.374;0.096;2023-02-24T01:58:05;0.80;99.90
63960;DHT22;50136;51.374;0.096;2023-02-24T02:08:12;0.80;99.90
63960;DHT22;50136;51.374;0.096;2023-02-24T02:18:21;0.90;99.90
63960;DHT22;50136;51.374;0.096;2023-02-24T02:28:53;0.80;99.90
63960;DHT22;50136;51.374;0.096;2023-02-24T02:39:09;0.80;99.90
63960;DHT22;50136;51.374;0.096;2023-02-24T02:49:16;0.80;99.90
63960;DHT22;50136;51.374;0.096;2023-02-24T02:59:22;0.70;99.90
63960;DHT22;50136;51.374;0.096;2023-02-24T03:09:29;0.60;99.90
63960;DHT22;50136;51.374;0.096;2023-02-24T03:19:35;0.60;99.90
63960;DHT22;50136;51.374;0.096;2023-02-24T03:29:42;0.50;99.90
63960;DHT22;50136;51.374;0.096;2023-02-24T03:39:46;0.50;99.90
63960;DHT22;50136;51.374;0.096;2023-02-24T03:49:48;0.60;99.90
63960;DHT22;50136;51.374;0.096;2023-02-24T03:59:58;0.60;99.90
63960;DHT22;50136;51.374;0.096;2023-02-24T04:10:07;0.60;99.90
63960;DHT22;50136;51.374;0.096;2023-02-24T04:20:14;0.60;99.90
63960;DHT22;50136;51.374;0.096;2023-02-24T04:30:18;0.60;99.90
63960;DHT22;50136;51.374;0.096;2023-02-24T04:40:22;0.70;99.90
63960;DHT22;50136;51.374;0.096;2023-02-24T04:50:25;0.60;99.90
63960;DHT22;50136;51.374;0.096;2023-02-24T05:00:29;0.60;99.90
63960;DHT22;50136;51.374;0.096;2023-02-24T05:10:35;0.90;99.90
63960;DHT22;50136;51.374;0.096;2023-02-24T05:20:40;1.00;99.90
63960;DHT22;50136;51.374;0.096;2023-02-24T05:30:43;1.40;99.90
63960;DHT22;50136;51.374;0.096;2023-02-24T05:40:46;1.90;99.90
63960;DHT22;50136;51.374;0.096;2023-02-24T05:50:50;2.20;99.90
63960;DHT22;50136;51.374;0.096;2023-02-24T06:00:54;2.30;99.90
63960;DHT22;50136;51.374;0.096;2023-02-24T06:10:56;2.50;99.90
63960;DHT22;50136;51.374;0.096;2023-02-24T06:21:01;2.70;99.90
63960;DHT22;50136;51.374;0.096;2023-02-24T06:31:04;2.90;99.90
63960;DHT22;50136;51.374;0.096;2023-02-24T06:41:07;3.00;99.90
63960;DHT22;50136;51.374;0.096;2023-02-24T06:51:11;3.10;99.90
63960;DHT22;50136;51.374;0.096;2023-02-24T07:01:16;3.00;99.90
63960;DHT22;50136;51.374;0.096;2023-02-24T07:11:19;3.00;99.90
63960;DHT22;50136;51.374;0.096;2023-02-24T07:21:24;2.90;99.90
63960;DHT22;50136;51.374;0.096;2023-02-24T07:31:26;3.20;99.90
63960;DHT22;50136;51.374;0.096;2023-02-24T07:41:30;3.40;99.90
63960;DHT22;50136;51.374;0.096;2023-02-24T07:51:32;3.60;99.90
63960;DHT22;50136;51.374;0.096;2023-02-24T08:01:36;3.60;99.90
63960;DHT22;50136;51.374;0.096;2023-02-24T08:11:39;3.70;99.90
63960;DHT22;50136;51.374;0.096;2023-02-24T08:21:43;3.90;99.90
63960;DHT22;50136;51.374;0.096;2023-02-24T08:31:45;4.10;99.90
63960;DHT22;50136;51.374;0.096;2023-02-24T08:41:48;4.30;99.90
63960;DHT22;50136;51.374;0.096;2023-02-24T08:51:51;4.50;99.90
63960;DHT22;50136;51.374;0.096;2023-02-24T09:01:56;4.70;99.90
63960;DHT22;50136;51.374;0.096;2023-02-24T09:12:05;5.00;99.90
63960;DHT22;50136;51.374;0.096;2023-02-24T09:32:25;5.50;99.90
63960;DHT22;50136;51.374;0.096;2023-02-24T09:42:29;5.80;99.90
63960;DHT22;50136;51.374;0.096;2023-02-24T09:52:33;6.00;99.90
63960;DHT22;50136;51.374;0.096;2023-02-24T10:02:44;6.10;99.90
63960;DHT22;50136;51.374;0.096;2023-02-24T10:12:52;6.60;99.90
63960;DHT22;50136;51.374;0.096;2023-02-24T10:23:01;6.90;99.90
63960;DHT22;50136;51.374;0.096;2023-02-24T10:33:17;7.10;99.90
63960;DHT22;50136;51.374;0.096;2023-02-24T10:43:22;7.30;99.90
63960;DHT22;50136;51.374;0.096;2023-02-24T10:53:26;7.20;99.90
63960;DHT22;50136;51.374;0.096;2023-02-24T11:03:29;7.30;99.90
63960;DHT22;50136;51.374;0.096;2023-02-24T11:13:35;7.40;99.90
63960;DHT22;50136;51.374;0.096;2023-02-24T11:23:40;7.40;99.90
63960;DHT22;50136;51.374;0.096;2023-02-24T11:33:49;7.50;99.90
63960;DHT22;50136;51.374;0.096;2023-02-24T11:43:55;7.60;99.90
63960;DHT22;50136;51.374;0.096;2023-02-24T11:54:02;7.60;99.90
63960;DHT22;50136;51.374;0.096;2023-02-24T12:04:18;7.50;99.90
63960;DHT22;50136;51.374;0.096;2023-02-24T12:14:27;7.50;99.90
63960;DHT22;50136;51.374;0.096;2023-02-24T12:24:36;7.60;99.90
63960;DHT22;50136;51.374;0.096;2023-02-24T12:34:49;8.00;99.90
63960;DHT22;50136;51.374;0.096;2023-02-24T12:45:00;8.10;99.90
63960;DHT22;50136;51.374;0.096;2023-02-24T12:55:10;8.70;99.90
63960;DHT22;50136;51.374;0.096;2023-02-24T13:05:19;9.30;99.90
63960;DHT22;50136;51.374;0.096;2023-02-24T13:15:26;9.70;99.90
63960;DHT22;50136;51.374;0.096;2023-02-24T13:25:31;10.30;99.90
63960;DHT22;50136;51.374;0.096;2023-02-24T13:35:36;9.90;99.90
63960;DHT22;50136;51.374;0.096;2023-02-24T13:45:38;9.60;99.90
63960;DHT22;50136;51.374;0.096;2023-02-24T13:56:02;9.50;99.90
63960;DHT22;50136;51.374;0.096;2023-02-24T14:06:15;9.50;99.90
63960;DHT22;50136;51.374;0.096;2023-02-24T14:16:22;9.50;99.90
63960;DHT22;50136;51.374;0.096;2023-02-24T14:26:26;9.70;99.90
63960;DHT22;50136;51.374;0.096;2023-02-24T14:36:34;9.80;99.90
63960;DHT22;50136;51.374;0.096;2023-02-24T14:46:45;9.90;99.90
63960;DHT22;50136;51.374;0.096;2023-02-24T14:56:49;10.30;99.90
63960;DHT22;50136;51.374;0.096;2023-02-24T15:06:52;10.20;99.90
63960;DHT22;50136;51.374;0.096;2023-02-24T15:16:58;10.30;99.90
63960;DHT22;50136;51.374;0.096;2023-02-24T15:27:01;10.20;99.90
63960;DHT22;50136;51.374;0.096;2023-02-24T15:37:15;9.90;99.90
63960;DHT22;50136;51.374;0.096;2023-02-24T15:47:21;10.50;99.90
63960;DHT22;50136;51.374;0.096;2023-02-24T15:57:24;10.90;99.90
63960;DHT22;50136;51.374;0.096;2023-02-24T16:07:29;11.00;99.90
63960;DHT22;50136;51.374;0.096;2023-02-24T16:17:38;10.70;99.90
63960;DHT22;50136;51.374;0.096;2023-02-24T16:27:40;10.20;99.90
63960;DHT22;50136;51.374;0.096;2023-02-24T16:37:45;9.50;99.90
63960;DHT22;50136;51.374;0.096;2023-02-24T16:47:48;9.10;99.90
63960;DHT22;50136;51.374;0.096;2023-02-24T17:08:42;8.70;99.90
63960;DHT22;50136;51.374;0.096;2023-02-24T17:18:44;8.60;99.90
63960;DHT22;50136;51.374;0.096;2023-02-24T17:28:47;8.40;99.90
63960;DHT22;50136;51.374;0.096;2023-02-24T17:38:49;8.30;99.90
63960;DHT22;50136;51.374;0.096;2023-02-24T17:48:53;8.10;99.90
63960;DHT22;50136;51.374;0.096;2023-02-24T17:59:15;7.90;99.90
63960;DHT22;50136;51.374;0.096;2023-02-24T18:09:19;7.60;99.90
63960;DHT22;50136;51.374;0.096;2023-02-24T18:41:37;7.30;99.90
63960;DHT22;50136;51.374;0.096;2023-02-24T23:20:57;5.20;99.90
63960;DHT22;50136;51.374;0.096;2023-02-24T23:30:59;5.20;99.90
63960;DHT22;50136;51.374;0.096;2023-02-24T23:41:06;5.10;99.90
63960;DHT22;50136;51.374;0.096;2023-02-24T23:51:11;5.00;99.90
